Buckingham, IL (60917)

12:48 PM CDT on July 31, 2015 (GMT -0500)
Herscher Fire Department | | Change Station
CLOSE
Current Station
Personal Weather Station
Location: Herscher, IL
Elevation: 656 ft
Nearby Weather Stations

Elev 656 ft 41.05 °N, 88.09 °W | Updated 2 minutes ago

Clear
Clear
84.3 °F
Feels Like 87 °F
N
13.0
Wind Variable Wind from NW
Gusts 20.0 mph

Today
High -- | Low -- °F
--% Chance of Precip.
Yesterday
High -- | Low -- °F
Precip. -- in
5:47 AM 8:10 PM
Full, 100% visible
Pressure 30.01 in
Visibility 10.0 miles
Clouds Scattered Clouds 4400 ft
Scattered Clouds 5000 ft
Mostly Cloudy 11000 ft
Heat Index 87 °F
Dew Point 67 °F
Humidity 57%
Rainfall 0.00 in
Snow Depth Not available.
UV 6 out of 12
Pollen 8.00 out of 12
Air Quality Not available.
Flu Activity Not available.
METAR KIKK 311735Z AUTO 28011G20KT 10SM SCT044 SCT050 BKN110 30/21 A3001 RMK AO2 LTG DSNT NE T02980207

More Conditions Fewer Conditions

Pressure 30.01 in
Visibility 10.0 miles
Clouds Scattered Clouds 4400 ft
Scattered Clouds 5000 ft
Mostly Cloudy 11000 ft
Heat Index 87 °F
Dew Point 67 °F
Humidity 57%
Rainfall 0.00 in
Snow Depth Not available.
UV 6 out of 12
Pollen 8.00 out of 12
Air Quality Not available.
Flu Activity Not available.
METAR KIKK 311735Z AUTO 28011G20KT 10SM SCT044 SCT050 BKN110 30/21 A3001 RMK AO2 LTG DSNT NE T02980207

More Conditions Fewer Conditions

10-Day Weather Forecast

×

Almanac

Astronomy

Jul. 31, 2015 Rise Set
Actual Time
Civil Twilight
Nautical Twilight
Astronomical Twilight
Moon
Length of Visible Light
Length of Day
Tomorrow will be .
, % of the Moon is Illuminated

Today's Extremes

State Highs State Lows

Community

WunderPhotos

Upload Photos

1,842,703 photos uploaded!

WunderBlogs® & News

Nearby

Air Quality

  Air Quality AQ Index Pollutant
Not available.

Snow Depth

Station Depth Elevation

Earthquake Activity

City Distance Mag. Time & Date
Minimum magnitude displayed is 2.5.

Coastal Water Temperatures

Place Temperature

Stations

Nearby Weather Stations

Station Location Temp. Windchill Dew Point Humidity Wind Precip. Elev Updated Type